Aberdeen, Wielka Brytania

15:15 BST dnia 05-maj-2015 (GMT +0100)
Stoneywood | | Change Station
CLOSE
Current Station
Stacja PWS
Location: Aberdeen,
n.p.m.: 200 ft
Najbliższa stacja pogodowa

Wysokość 200 ft 57.19 °N, 2.18 °W | Updated 19 seconds ago

Rain
deszcz
46.4 ° F
Odczuwalna 41 ° F
Płn.
12.3
Wiatr zmienny Wiatr od PnWs
Gusts 17.4 mph

Dziś
Wysoka -- | Niska -- ° F
--% Prawdop. opadów
Wczoraj
Wysoka -- | Niska -- ° F
Precip. -- cali
5:11 AM 9:01 PM
Pełnia Księżyca, 98% visible
Ciśnienie 29.12 cali
Widzialność -9999.0 mil
chmury przewaga chmur 300 ft
czynnik chłodzący wiatru 41 ° F
Punkt rosy 45 ° F
Wilgotność 94%
Opady deszczu 0.35 cali
grubość pokrywy śnieżnej Niedostępne.
UV 1.0 z 12
Pyłki Niedostępne.
Jakość powietrza Niedostępne.
Flu Activity Niedostępne.
METAR EGPD 051350Z 05012KT 3700 RADZ BKN003 08/07 Q0986 TEMPO 6000 -RADZ

More Conditions Fewer Conditions

Ciśnienie 29.12 cali
Widzialność -9999.0 mil
chmury przewaga chmur 300 ft
czynnik chłodzący wiatru 41 ° F
Punkt rosy 45 ° F
Wilgotność 94%
Opady deszczu 0.35 cali
grubość pokrywy śnieżnej Niedostępne.
UV 1.0 z 12
Pyłki Niedostępne.
Jakość powietrza Niedostępne.
Flu Activity Niedostępne.
METAR EGPD 051350Z 05012KT 3700 RADZ BKN003 08/07 Q0986 TEMPO 6000 -RADZ

More Conditions Fewer Conditions

10-Day Weather Forecast

Almanac

Astronomia

May. 05, 2015 Wschód Zachów
Aktualny czas
Zmierzch cywilny
Zmierzch żeglarski
świt/zmierzch astronomiczny
Księżyc
całkowite oświetlenie
Długość dnia
Tomorrow will be .
, % of the Moon is Illuminated

Dzisiejsze ekstrema

Country Highs Country Lows

Community

WunderPhotos

Upload Photos

1,818,901 zdjęcia zostały przesłane!

WunderBlogs® & News

Nearby

Jakość powietrza

  Jakość powietrza czynnik AQ Zanieczyszczenie
Not available.

Głębokość pokrywy śnieżnej

Station Depth n.p.m.

Aktywność sejsmiczna

Miejscowość Distance Mag. Time & Date
Minimum magnitude displayed is 2.5.

Temperatury wody na wybrzeżu

Miejsce Temperatura

Stations

Najbliższa stacja pogodowa

Lokalizacja stacji Temp. czynnik chłodzący wiatru Punkt rosy Wilgotność Wiatr Precip. Wysokość Uaktualniono Typ